Time;durP1;ratioP1;P1;durP2;ratioP2;P2;SDS_P1;SDS_P2;PMS_P1;PMS_P2;Temp;Humidity;BMP_temperature;BMP_pressure;BME280_temperature;BME280_humidity;BME280_pressure;Samples;Min_cycle;Max_cycle;Signal;HPM_P1;HPM_P2
2021/06/02 00:03:47;;;;;;;4.70;4.30;;;11.10;99.90;;;;;;4993743;28;20080;-72
2021/06/02 00:06:13;;;;;;;8.48;4.90;;;11.00;99.90;;;;;;4975595;28;20169;-72
2021/06/02 00:08:39;;;;;;;5.20;4.70;;;10.90;99.90;;;;;;4994331;28;20553;-73
2021/06/02 00:11:07;;;;;;;5.20;4.70;;;10.90;99.90;;;;;;4993712;28;20030;-73
2021/06/02 00:13:36;;;;;;;5.63;4.93;;;10.80;99.90;;;;;;4976046;28;20049;-73
2021/06/02 00:16:03;;;;;;;8.48;5.07;;;10.70;99.90;;;;;;4993377;28;20031;-73
2021/06/02 00:18:29;;;;;;;5.75;4.78;;;10.70;99.90;;;;;;4994812;28;20034;-73
2021/06/02 00:20:56;;;;;;;8.45;5.07;;;10.70;99.90;;;;;;4993421;28;20034;-73
2021/06/02 00:23:22;;;;;;;6.22;4.90;;;10.60;99.90;;;;;;4976599;28;20034;-73
2021/06/02 00:25:48;;;;;;;6.57;4.78;;;10.60;99.90;;;;;;4992736;28;20018;-74
2021/06/02 00:28:16;;;;;;;5.72;5.13;;;10.50;99.90;;;;;;4992914;28;20444;-73
2021/06/02 00:30:44;;;;;;;5.43;4.63;;;10.50;99.90;;;;;;4991733;28;20031;-73
2021/06/02 00:33:10;;;;;;;6.78;5.88;;;10.50;99.90;;;;;;4992602;28;20105;-73
2021/06/02 00:35:37;;;;;;;6.70;5.50;;;10.50;99.90;;;;;;4992536;28;20057;-73
2021/06/02 00:38:03;;;;;;;9.02;5.50;;;10.40;99.90;;;;;;4992514;28;20122;-73
2021/06/02 00:40:46;;;;;;;8.30;5.35;;;10.50;99.90;;;;;;4991993;28;20038;-73
2021/06/02 00:43:14;;;;;;;;;;;10.40;99.90;;;;;;5004212;28;20547;-73
2021/06/02 00:45:40;;;;;;;6.95;5.57;;;10.30;99.90;;;;;;4992257;28;19972;-73
2021/06/02 00:48:06;;;;;;;9.40;5.70;;;10.20;99.90;;;;;;4992377;28;20064;-73
2021/06/02 00:50:32;;;;;;;7.03;6.25;;;10.20;99.90;;;;;;4992058;28;20041;-73
2021/06/02 00:52:58;;;;;;;9.73;5.93;;;10.10;99.90;;;;;;4975271;28;20030;-73
2021/06/02 00:55:23;;;;;;;7.68;6.25;;;10.10;99.90;;;;;;4992404;28;20100;-74
2021/06/02 00:57:53;;;;;;;7.00;5.72;;;10.00;99.90;;;;;;4992135;28;20045;-74
2021/06/02 01:00:20;;;;;;;10.48;5.97;;;10.00;99.90;;;;;;4991379;28;20018;-73
2021/06/02 01:02:51;;;;;;;6.57;5.70;;;10.00;99.90;;;;;;4992439;28;20085;-74
2021/06/02 01:05:21;;;;;;;9.82;6.93;;;9.90;99.90;;;;;;4992725;28;20022;-73
2021/06/02 01:07:51;;;;;;;6.63;6.00;;;9.90;99.90;;;;;;4992149;28;20488;-74
2021/06/02 01:10:18;;;;;;;9.43;6.13;;;9.80;99.90;;;;;;4991655;28;20034;-72
2021/06/02 01:12:48;;;;;;;8.68;6.05;;;9.80;99.90;;;;;;4992241;28;20393;-73
2021/06/02 01:15:15;;;;;;;8.93;6.75;;;9.80;99.90;;;;;;4992118;28;20469;-74
2021/06/02 01:17:42;;;;;;;6.82;5.95;;;9.70;99.90;;;;;;4991981;28;20042;-71
2021/06/02 01:20:08;;;;;;;10.10;6.63;;;9.70;99.90;;;;;;4991577;28;20536;-72
2021/06/02 01:22:35;;;;;;;8.13;6.10;;;9.70;99.90;;;;;;4991964;28;20027;-72
2021/06/02 01:25:11;;;;;;;8.10;6.93;;;9.60;99.90;;;;;;4992073;28;20380;-72
2021/06/02 01:27:38;;;;;;;9.15;7.38;;;9.60;99.90;;;;;;4991936;28;20026;-72
2021/06/02 01:30:10;;;;;;;8.63;6.63;;;9.50;99.90;;;;;;4991261;28;20041;-72
2021/06/02 01:32:54;;;;;;;12.68;6.80;;;9.50;99.90;;;;;;4991747;28;20034;-72
2021/06/02 01:35:38;;;;;;;8.75;6.35;;;9.40;99.90;;;;;;4991759;28;20026;-72
2021/06/02 01:38:31;;;;;;;10.50;7.63;;;9.40;99.90;;;;;;4991536;28;20026;-72
2021/06/02 01:41:19;;;;;;;;;;;9.40;99.90;;;;;;4991712;28;20031;-72
2021/06/02 01:44:22;;;;;;;8.35;6.97;;;9.40;99.90;;;;;;4991754;28;19906;-72
2021/06/02 01:47:23;;;;;;;9.73;6.95;;;9.40;99.90;;;;;;4991437;28;20023;-73
2021/06/02 01:49:57;;;;;;;10.57;7.22;;;9.40;99.90;;;;;;4948997;28;20053;-73
2021/06/02 01:52:42;;;;;;;7.65;6.80;;;9.30;99.90;;;;;;4991738;28;20026;-72
2021/06/02 01:55:57;;;;;;;9.73;6.60;;;9.30;99.90;;;;;;4991752;28;20234;-73
2021/06/02 01:59:00;;;;;;;8.65;6.88;;;9.30;99.90;;;;;;4914986;29;20036;-73
2021/06/02 02:01:44;;;;;;;;;;;9.20;99.90;;;;;;4915833;29;20064;-72
2021/06/02 02:04:24;;;;;;;10.77;7.10;;;9.10;99.90;;;;;;4989247;28;19916;-72
2021/06/02 02:07:02;;;;;;;10.25;7.47;;;9.10;99.90;;;;;;4995470;28;20085;-73
2021/06/02 02:10:01;;;;;;;9.23;7.07;;;9.00;99.90;;;;;;4977770;28;20648;-73
2021/06/02 02:12:36;;;;;;;11.63;7.80;;;8.90;99.90;;;;;;4995816;28;20049;-72
2021/06/02 02:15:14;;;;;;;8.02;6.90;;;8.90;99.90;;;;;;4995384;28;20022;-72
2021/06/02 02:17:50;;;;;;;9.73;7.43;;;8.90;99.90;;;;;;4994911;28;20064;-74
2021/06/02 02:20:38;;;;;;;11.73;7.63;;;8.80;99.90;;;;;;4994489;28;20673;-74
2021/06/02 02:23:36;;;;;;;10.70;7.28;;;8.80;99.90;;;;;;4995455;28;20030;-74
2021/06/02 02:26:38;;;;;;;12.35;7.38;;;8.90;99.90;;;;;;4995043;28;20502;-74
2021/06/02 02:29:41;;;;;;;9.80;7.80;;;8.80;99.90;;;;;;4995155;28;20034;-73
2021/06/02 02:32:29;;;;;;;;;;;8.80;99.90;;;;;;4995111;28;20034;-73
2021/06/02 02:35:07;;;;;;;7.50;6.50;;;8.80;99.90;;;;;;4975795;28;20371;-72
2021/06/02 02:37:53;;;;;;;9.88;7.68;;;8.70;99.90;;;;;;4995027;28;20026;-73
2021/06/02 02:40:50;;;;;;;7.70;6.90;;;8.70;99.90;;;;;;4994247;28;20030;-73
2021/06/02 02:43:37;;;;;;;10.13;7.53;;;8.70;99.90;;;;;;4995005;28;20431;-72
2021/06/02 02:46:13;;;;;;;11.00;8.05;;;8.60;99.90;;;;;;4994357;28;20649;-72
2021/06/02 02:48:53;;;;;;;9.15;7.75;;;8.60;99.90;;;;;;4994672;28;20053;-71
2021/06/02 02:51:43;;;;;;;11.80;8.48;;;8.50;99.90;;;;;;4994100;28;20084;-72
2021/06/02 02:54:09;;;;;;;8.82;7.88;;;8.50;99.90;;;;;;4994797;28;20033;-71
2021/06/02 02:56:43;;;;;;;9.05;7.47;;;8.40;99.90;;;;;;4977117;28;20035;-72
2021/06/02 02:59:20;;;;;;;9.05;8.02;;;8.40;99.90;;;;;;4994250;28;20058;-73
2021/06/02 03:02:33;;;;;;;9.27;8.07;;;8.40;99.90;;;;;;4993243;28;20024;-72
2021/06/02 03:05:01;;;;;;;11.40;6.85;;;8.40;99.90;;;;;;4914368;29;20028;-72
2021/06/02 03:07:33;;;;;;;10.07;7.18;;;8.30;99.90;;;;;;4934626;28;20034;-73
2021/06/02 03:10:14;;;;;;;8.32;7.18;;;8.40;99.90;;;;;;4974813;28;20033;-73
2021/06/02 03:13:03;;;;;;;9.48;7.63;;;8.30;99.90;;;;;;4994342;28;20031;-73
2021/06/02 03:15:49;;;;;;;9.32;7.60;;;8.30;99.90;;;;;;4994192;28;20555;-73
2021/06/02 03:18:23;;;;;;;10.35;7.18;;;8.30;99.90;;;;;;4993919;28;20042;-73
2021/06/02 03:20:58;;;;;;;10.65;7.45;;;8.20;99.90;;;;;;4993086;28;20026;-74
2021/06/02 03:23:45;;;;;;;8.20;7.40;;;8.20;99.90;;;;;;4994089;28;20018;-73
2021/06/02 03:26:15;;;;;;;12.45;8.05;;;8.20;99.90;;;;;;4974134;28;20115;-71
2021/06/02 03:28:59;;;;;;;9.38;7.82;;;8.10;99.90;;;;;;4956899;28;20035;-71
2021/06/02 03:31:52;;;;;;;12.38;8.02;;;8.10;99.90;;;;;;4972274;28;20417;-71
2021/06/02 03:34:42;;;;;;;11.85;8.95;;;8.00;99.90;;;;;;4974131;28;20042;-72
2021/06/02 03:37:32;;;;;;;11.15;8.80;;;8.10;99.90;;;;;;4973938;28;20162;-71
2021/06/02 03:40:22;;;;;;;12.88;8.75;;;8.10;99.90;;;;;;4973454;28;20026;-73
2021/06/02 03:42:51;;;;;;;8.82;7.75;;;8.00;99.90;;;;;;4973931;28;20396;-72
2021/06/02 03:45:46;;;;;;;9.88;7.85;;;7.90;99.90;;;;;;4974108;28;20022;-72
2021/06/02 03:48:36;;;;;;;10.35;8.60;;;7.80;99.90;;;;;;4974328;28;20089;-72
2021/06/02 03:51:01;;;;;;;9.77;8.52;;;7.90;99.90;;;;;;4973152;28;20031;-72
2021/06/02 03:53:58;;;;;;;8.63;7.75;;;7.90;99.90;;;;;;4956434;28;20767;-72
2021/06/02 03:56:46;;;;;;;9.68;7.93;;;7.90;99.90;;;;;;4973866;28;20030;-71
2021/06/02 03:59:22;;;;;;;9.13;7.97;;;8.00;99.90;;;;;;4972705;28;20365;-73
2021/06/02 04:01:51;;;;;;;10.52;8.68;;;8.10;99.90;;;;;;4973640;28;20053;-71
2021/06/02 04:04:45;;;;;;;10.70;9.05;;;8.10;99.90;;;;;;4973930;28;20114;-72
2021/06/02 04:07:18;;;;;;;14.25;9.38;;;8.10;99.90;;;;;;4973806;28;20023;-72
2021/06/02 04:10:00;;;;;;;9.77;8.77;;;8.00;99.90;;;;;;4973335;28;20027;-72
2021/06/02 04:12:36;;;;;;;13.70;9.35;;;8.00;99.90;;;;;;4974351;28;20019;-72
2021/06/02 04:15:05;;;;;;;13.38;8.38;;;8.10;99.90;;;;;;4973750;28;20429;-73
2021/06/02 04:17:33;;;;;;;15.57;11.48;;;8.00;99.90;;;;;;4973331;28;20481;-73
2021/06/02 04:20:03;;;;;;;13.70;10.02;;;8.10;99.90;;;;;;4972628;28;20031;-72
2021/06/02 04:22:31;;;;;;;12.63;9.25;;;8.10;99.90;;;;;;4973479;28;20027;-72
2021/06/02 04:25:01;;;;;;;12.00;8.60;;;8.10;99.90;;;;;;4983368;28;20507;-72
2021/06/02 04:27:30;;;;;;;10.18;8.43;;;8.10;99.90;;;;;;4985633;28;20110;-71
2021/06/02 04:30:05;;;;;;;10.18;9.02;;;8.10;99.90;;;;;;4986278;28;20377;-71
2021/06/02 04:32:41;;;;;;;11.45;7.95;;;8.20;99.90;;;;;;4992426;28;20058;-72
2021/06/02 04:35:09;;;;;;;9.07;7.75;;;8.20;99.90;;;;;;4992080;28;20393;-70
2021/06/02 04:37:36;;;;;;;10.40;7.65;;;8.30;99.90;;;;;;4992468;28;20030;-71
2021/06/02 04:40:05;;;;;;;17.00;8.45;;;8.30;99.90;;;;;;4990890;28;20018;-71
2021/06/02 04:42:35;;;;;;;9.93;8.20;;;8.30;99.90;;;;;;4974773;28;20018;-73
2021/06/02 04:45:02;;;;;;;11.02;9.20;;;8.30;99.90;;;;;;4970684;28;20030;-72
2021/06/02 04:47:30;;;;;;;11.02;8.63;;;8.30;99.90;;;;;;4974790;28;20432;-74
2021/06/02 04:50:26;;;;;;;10.88;9.02;;;8.40;99.90;;;;;;4973407;28;20037;-73
2021/06/02 04:53:10;;;;;;;9.07;8.18;;;8.50;99.90;;;;;;4992549;28;20501;-73
2021/06/02 04:56:00;;;;;;;10.60;7.88;;;8.50;99.90;;;;;;4992663;28;20081;-73
2021/06/02 04:58:35;;;;;;;16.25;8.85;;;8.50;99.90;;;;;;4992099;28;20030;-72
2021/06/02 05:01:44;;;;;;;10.00;8.00;;;8.50;99.90;;;;;;4973417;28;20018;-72
2021/06/02 05:05:01;;;;;;;10.95;7.78;;;8.60;99.90;;;;;;4991558;28;20038;-72
2021/06/02 05:08:07;;;;;;;10.05;7.35;;;8.60;99.90;;;;;;4992857;28;20029;-72
2021/06/02 05:10:54;;;;;;;10.98;6.95;;;8.70;99.90;;;;;;4973387;28;20413;-72
2021/06/02 05:13:34;;;;;;;10.00;7.45;;;8.90;99.90;;;;;;4992507;28;20050;-73
2021/06/02 05:16:51;;;;;;;12.88;7.03;;;8.90;99.90;;;;;;4992064;28;20062;-71
2021/06/02 05:22:19;;;;;;;;;;;9.70;99.90;;;;;;4993935;28;20022;-71
2021/06/02 05:25:21;;;;;;;12.10;6.88;;;10.00;99.90;;;;;;4993467;28;20098;-71
2021/06/02 05:28:08;;;;;;;10.35;6.72;;;10.30;99.90;;;;;;4996893;28;20034;-73
2021/06/02 05:30:46;;;;;;;11.68;6.68;;;10.50;99.90;;;;;;4978491;28;20035;-71
2021/06/02 05:33:36;;;;;;;7.45;6.15;;;10.30;99.90;;;;;;4986858;28;20030;-71
2021/06/02 05:36:43;;;;;;;7.88;6.63;;;10.10;99.90;;;;;;4992844;28;20033;-72
2021/06/02 05:39:14;;;;;;;8.88;7.05;;;10.10;99.90;;;;;;4996348;28;20054;-71
2021/06/02 05:41:57;;;;;;;12.07;7.40;;;10.20;99.90;;;;;;4995621;28;20027;-70
2021/06/02 05:44:41;;;;;;;;;;;10.30;99.90;;;;;;4997273;28;20297;-70
2021/06/02 05:47:36;;;;;;;9.35;7.43;;;10.30;99.90;;;;;;4995896;28;19906;-72
2021/06/02 05:50:20;;;;;;;7.55;6.72;;;10.40;99.90;;;;;;4978534;28;20018;-71
2021/06/02 05:53:21;;;;;;;8.95;7.57;;;10.50;99.90;;;;;;4995135;28;20027;-71
2021/06/02 05:56:29;;;;;;;9.20;7.55;;;10.60;99.90;;;;;;4929318;28;20039;-71
2021/06/02 05:59:34;;;;;;;9.10;7.63;;;10.70;99.90;;;;;;4996865;28;20033;-71
2021/06/02 06:02:26;;;;;;;11.98;7.55;;;10.80;99.90;;;;;;4996932;28;20033;-73
2021/06/02 06:05:10;;;;;;;8.63;7.47;;;10.90;99.90;;;;;;4994737;28;20441;-72
2021/06/02 06:08:04;;;;;;;12.82;8.05;;;10.90;99.90;;;;;;4988421;28;20030;-73
2021/06/02 06:11:33;;;;;;;8.90;7.20;;;11.00;99.90;;;;;;4993763;28;20030;-74
2021/06/02 06:14:26;;;;;;;10.05;7.40;;;11.10;99.90;;;;;;4878379;29;20177;-71
2021/06/02 06:17:10;;;;;;;10.90;7.22;;;11.20;99.90;;;;;;4976118;28;20042;-72
2021/06/02 06:20:00;;;;;;;8.27;6.70;;;11.30;99.90;;;;;;4994550;28;20030;-73
2021/06/02 06:22:54;;;;;;;9.32;6.88;;;11.40;99.90;;;;;;4994849;28;20112;-72
2021/06/02 06:25:27;;;;;;;9.45;6.15;;;11.50;99.90;;;;;;4966519;28;20026;-72
2021/06/02 06:27:55;;;;;;;;;;;11.80;99.90;;;;;;4956643;28;20030;-72
2021/06/02 06:30:25;;;;;;;11.05;6.30;;;11.90;99.90;;;;;;4974536;28;20473;-72
2021/06/02 06:32:53;;;;;;;8.02;6.40;;;12.10;99.90;;;;;;4957557;28;20062;-73
2021/06/02 06:35:20;;;;;;;10.52;6.40;;;12.30;99.90;;;;;;4973897;28;20047;-72
2021/06/02 06:37:49;;;;;;;10.32;6.00;;;12.40;99.90;;;;;;4974889;28;20497;-73
2021/06/02 06:40:19;;;;;;;8.55;6.60;;;12.60;99.90;;;;;;4974267;28;20031;-71
2021/06/02 06:42:51;;;;;;;13.05;6.15;;;12.80;99.90;;;;;;4974482;28;20081;-73
2021/06/02 06:45:25;;;;;;;10.75;5.63;;;13.10;99.90;;;;;;4981965;28;20053;-72
2021/06/02 06:47:52;;;;;;;7.00;5.30;;;13.30;99.90;;;;;;4994213;28;20479;-72
2021/06/02 06:50:20;;;;;;;11.05;5.43;;;13.60;99.90;;;;;;4992749;28;20436;-73
2021/06/02 06:52:54;;;;;;;6.82;5.10;;;13.70;99.90;;;;;;4994040;28;20034;-72
2021/06/02 06:55:22;;;;;;;6.95;4.75;;;13.90;99.90;;;;;;4993814;28;20164;-73
2021/06/02 06:57:49;;;;;;;8.50;4.75;;;14.00;99.90;;;;;;4993840;28;20446;-73
2021/06/02 07:00:16;;;;;;;9.40;5.53;;;14.20;99.90;;;;;;4993228;28;20093;-72
2021/06/02 07:02:44;;;;;;;8.38;4.85;;;14.50;99.90;;;;;;4993813;28;20533;-73
2021/06/02 07:05:11;;;;;;;5.57;4.10;;;14.60;99.90;;;;;;4993979;28;20072;-74
2021/06/02 07:07:40;;;;;;;5.40;4.15;;;14.80;99.90;;;;;;4994029;28;20057;-72
2021/06/02 07:10:07;;;;;;;6.70;4.47;;;14.90;99.90;;;;;;4992949;28;20501;-72
2021/06/02 07:12:36;;;;;;;17.58;4.03;;;15.00;99.90;;;;;;4994099;28;20026;-72
2021/06/02 07:15:05;;;;;;;5.07;3.83;;;15.20;99.90;;;;;;4993937;28;20408;-73
2021/06/02 07:17:31;;;;;;;8.35;3.75;;;15.30;99.90;;;;;;4993488;28;20027;-72
2021/06/02 07:20:02;;;;;;;4.82;3.70;;;15.40;99.90;;;;;;4993436;28;20387;-72
2021/06/02 07:22:29;;;;;;;5.38;3.80;;;15.80;99.90;;;;;;4976373;28;20026;-72
2021/06/02 07:24:57;;;;;;;4.40;3.50;;;15.90;99.90;;;;;;4993785;28;20030;-72
2021/06/02 07:27:24;;;;;;;7.60;3.55;;;16.10;99.90;;;;;;4994013;28;20022;-72
2021/06/02 07:29:50;;;;;;;6.13;3.83;;;16.10;99.90;;;;;;4992962;28;20429;-71
2021/06/02 07:32:16;;;;;;;7.80;3.53;;;16.30;99.90;;;;;;4993699;28;20102;-70
2021/06/02 07:34:41;;;;;;;8.02;3.30;;;16.50;99.90;;;;;;4993751;28;20045;-71
2021/06/02 07:37:07;;;;;;;6.35;3.50;;;16.70;99.90;;;;;;4993486;28;20030;-72
2021/06/02 07:39:33;;;;;;;5.70;3.17;;;16.90;99.90;;;;;;4992863;28;20022;-72
2021/06/02 07:41:58;;;;;;;4.78;2.65;;;17.10;99.90;;;;;;4981836;28;20027;-71
2021/06/02 07:44:24;;;;;;;4.75;2.70;;;17.20;99.90;;;;;;4973518;28;20023;-71
2021/06/02 07:46:50;;;;;;;4.68;3.10;;;17.30;99.90;;;;;;4973684;28;20062;-73
2021/06/02 07:49:15;;;;;;;5.00;2.75;;;17.60;99.90;;;;;;4971796;28;20066;-73
2021/06/02 07:51:41;;;;;;;2.67;2.47;;;17.90;99.90;;;;;;4988521;28;20030;-73
2021/06/02 07:54:07;;;;;;;6.88;2.67;;;18.10;99.90;;;;;;4975509;28;20108;-72
2021/06/02 07:56:33;;;;;;;2.75;2.25;;;18.40;99.90;;;;;;4992565;28;20500;-73
2021/06/02 07:58:59;;;;;;;10.18;2.72;;;18.60;99.70;;;;;;4993502;28;20396;-73
2021/06/02 08:01:25;;;;;;;4.78;2.13;;;18.70;99.10;;;;;;4992368;28;20062;-72
2021/06/02 08:03:51;;;;;;;2.47;1.95;;;19.00;98.40;;;;;;4992248;28;20022;-73
2021/06/02 08:06:17;;;;;;;5.68;2.00;;;19.40;97.20;;;;;;4992978;28;20022;-73
2021/06/02 08:08:42;;;;;;;3.25;2.20;;;19.60;95.00;;;;;;4993243;28;20031;-74
2021/06/02 08:11:08;;;;;;;2.30;2.10;;;19.50;93.20;;;;;;4992329;28;20034;-71
2021/06/02 08:13:34;;;;;;;3.38;2.05;;;19.80;95.50;;;;;;4992776;28;20027;-74
2021/06/02 08:16:00;;;;;;;4.25;1.98;;;20.10;93.80;;;;;;4992485;28;20142;-73
2021/06/02 08:18:26;;;;;;;3.47;2.25;;;20.30;92.90;;;;;;4992702;28;20113;-73
2021/06/02 08:20:52;;;;;;;3.63;2.05;;;20.30;92.90;;;;;;4991470;28;20388;-73
2021/06/02 08:23:17;;;;;;;2.95;1.90;;;20.60;92.90;;;;;;4991349;28;20018;-73
2021/06/02 08:25:43;;;;;;;5.00;1.80;;;20.70;90.80;;;;;;4993046;28;20018;-74
2021/06/02 08:28:08;;;;;;;2.85;2.28;;;20.90;90.30;;;;;;4992641;28;20062;-74
2021/06/02 08:30:34;;;;;;;3.13;2.33;;;21.00;89.70;;;;;;4993046;28;20058;-72
2021/06/02 08:33:00;;;;;;;5.75;2.03;;;21.20;87.70;;;;;;4993898;28;20123;-73
2021/06/02 08:35:26;;;;;;;5.60;2.20;;;21.30;83.90;;;;;;4993540;28;20026;-73
2021/06/02 08:37:53;;;;;;;4.28;2.15;;;21.40;82.10;;;;;;4992570;28;20041;-73
2021/06/02 08:40:19;;;;;;;5.40;2.13;;;21.50;82.00;;;;;;4991816;28;20023;-73
2021/06/02 08:42:49;;;;;;;3.95;2.25;;;21.60;82.90;;;;;;4993332;28;20377;-73
2021/06/02 08:45:16;;;;;;;5.50;1.75;;;21.80;79.80;;;;;;4992274;28;20109;-73
2021/06/02 08:47:44;;;;;;;1.85;1.70;;;22.90;79.40;;;;;;4992723;28;20026;-74
2021/06/02 08:50:13;;;;;;;3.75;1.80;;;24.20;74.60;;;;;;4996195;28;20836;-73
2021/06/02 08:52:40;;;;;;;8.15;2.00;;;24.90;73.00;;;;;;4994001;28;20400;-73
2021/06/02 08:55:08;;;;;;;10.00;1.90;;;25.00;68.70;;;;;;4991793;28;20491;-73
2021/06/02 08:57:38;;;;;;;6.90;1.83;;;24.60;66.20;;;;;;4991809;28;20477;-73
2021/06/02 09:00:07;;;;;;;5.93;1.83;;;23.80;70.50;;;;;;4991555;28;20019;-73
2021/06/02 09:02:32;;;;;;;2.20;1.58;;;23.70;65.50;;;;;;4992194;28;20034;-73
2021/06/02 09:04:58;;;;;;;4.20;1.95;;;23.80;67.80;;;;;;4991826;28;20098;-72
2021/06/02 09:07:25;;;;;;;3.45;1.95;;;24.40;69.10;;;;;;4992202;28;20026;-73
2021/06/02 09:09:52;;;;;;;6.05;1.17;;;25.20;67.60;;;;;;4991509;28;20023;-73
2021/06/02 09:12:34;;;;;;;2.75;1.50;;;25.80;65.10;;;;;;4992275;28;20023;-73
2021/06/02 09:15:00;;;;;;;;;;;26.50;61.80;;;;;;4992981;28;20038;-73
2021/06/02 09:17:26;;;;;;;4.05;2.03;;;26.10;58.90;;;;;;4992227;28;19914;-74
2021/06/02 09:19:54;;;;;;;4.18;1.48;;;25.80;57.60;;;;;;4991350;28;20109;-74
2021/06/02 09:22:22;;;;;;;1.70;1.55;;;25.70;60.10;;;;;;4992557;28;20026;-72
2021/06/02 09:24:48;;;;;;;10.43;1.73;;;25.20;58.30;;;;;;4992141;28;20042;-73
2021/06/02 09:27:15;;;;;;;6.47;1.85;;;24.60;59.80;;;;;;4992819;28;20025;-75
2021/06/02 09:29:52;;;;;;;6.43;1.80;;;24.90;61.60;;;;;;4973848;28;20038;-74
2021/06/02 09:32:21;;;;;;;5.18;1.33;;;24.50;57.90;;;;;;4992210;28;20117;-74
2021/06/02 09:34:47;;;;;;;6.13;1.70;;;25.00;59.10;;;;;;4970249;28;20041;-73
2021/06/02 09:37:13;;;;;;;5.28;1.50;;;26.20;58.50;;;;;;4990831;28;20105;-73
2021/06/02 09:39:44;;;;;;;2.08;1.40;;;27.50;57.10;;;;;;4990837;28;20033;-74
2021/06/02 09:42:28;;;;;;;1.73;1.30;;;29.00;55.30;;;;;;4991345;28;20072;-72
2021/06/02 09:45:06;;;;;;;5.40;1.67;;;30.00;52.30;;;;;;4990723;28;20362;-71
2021/06/02 09:47:51;;;;;;;2.83;1.45;;;30.30;52.10;;;;;;4990866;28;20658;-73
2021/06/02 09:50:33;;;;;;;2.95;1.30;;;31.60;46.60;;;;;;4990553;28;20393;-73
2021/06/02 09:53:02;;;;;;;1.70;1.50;;;30.80;48.40;;;;;;4991193;28;20439;-72
2021/06/02 09:55:34;;;;;;;4.53;1.70;;;30.40;46.30;;;;;;4991163;28;20031;-74
2021/06/02 09:58:05;;;;;;;2.65;1.50;;;29.70;48.50;;;;;;4991047;28;20030;-71
2021/06/02 10:00:35;;;;;;;;;;;29.50;48.30;;;;;;4973454;28;20420;-71
2021/06/02 10:03:06;;;;;;;4.20;1.73;;;29.80;49.30;;;;;;4991121;28;19981;-71
2021/06/02 10:05:36;;;;;;;5.10;1.80;;;29.30;47.90;;;;;;4989568;28;20217;-71
2021/06/02 10:08:03;;;;;;;3.63;1.50;;;29.40;48.90;;;;;;4990743;28;20046;-73
2021/06/02 10:10:29;;;;;;;2.78;1.67;;;29.10;48.50;;;;;;4990442;28;20022;-71
2021/06/02 10:13:06;;;;;;;2.25;1.80;;;28.70;47.20;;;;;;4991324;28;20089;-72
2021/06/02 10:15:37;;;;;;;2.47;1.75;;;28.00;50.00;;;;;;4991008;28;20545;-71
2021/06/02 10:18:04;;;;;;;4.50;2.25;;;27.70;50.80;;;;;;4991933;28;20045;-71
2021/06/02 10:20:30;;;;;;;8.73;2.20;;;27.70;50.00;;;;;;4993463;28;20023;-73
2021/06/02 10:23:00;;;;;;;1.67;1.58;;;27.30;51.00;;;;;;4994839;28;20034;-72
2021/06/02 10:25:28;;;;;;;2.13;1.70;;;27.50;52.00;;;;;;4994327;28;20034;-72
2021/06/02 10:27:57;;;;;;;3.67;1.70;;;28.20;54.20;;;;;;4995297;28;20026;-73
2021/06/02 10:30:25;;;;;;;2.08;1.85;;;28.50;52.60;;;;;;4993783;28;20049;-72
2021/06/02 10:32:54;;;;;;;2.45;1.63;;;28.40;50.30;;;;;;4993930;28;20022;-72
2021/06/02 10:35:20;;;;;;;2.10;1.83;;;28.40;50.00;;;;;;4976629;28;20029;-73
2021/06/02 10:37:46;;;;;;;2.63;1.85;;;28.20;49.00;;;;;;4994217;28;20034;-72
2021/06/02 10:40:18;;;;;;;3.88;1.80;;;28.10;50.00;;;;;;4993571;28;20037;-72
2021/06/02 10:43:04;;;;;;;2.25;1.58;;;27.90;49.80;;;;;;4994671;28;20033;-72
2021/06/02 10:45:38;;;;;;;2.90;1.65;;;28.30;51.80;;;;;;4993953;28;20027;-71
2021/06/02 10:48:05;;;;;;;2.08;1.67;;;28.40;50.10;;;;;;4994143;28;20034;-71
2021/06/02 10:50:42;;;;;;;5.15;1.65;;;28.30;50.20;;;;;;4993100;28;20380;-72
2021/06/02 10:53:25;;;;;;;2.50;1.80;;;28.60;51.60;;;;;;4994088;28;20023;-72
2021/06/02 10:56:00;;;;;;;2.42;1.50;;;29.00;49.30;;;;;;4993898;28;20026;-72
2021/06/02 10:58:33;;;;;;;2.38;1.50;;;29.60;49.00;;;;;;4993869;28;20034;-72
2021/06/02 11:01:08;;;;;;;2.92;1.50;;;30.00;48.90;;;;;;4991908;28;20468;-72
2021/06/02 11:03:36;;;;;;;4.38;1.70;;;29.90;47.90;;;;;;4993940;28;20034;-72
2021/06/02 11:06:14;;;;;;;2.38;1.48;;;29.30;47.30;;;;;;4975787;28;20105;-72
2021/06/02 11:09:05;;;;;;;1.45;1.30;;;29.30;48.40;;;;;;4993498;28;20026;-73
2021/06/02 11:11:42;;;;;;;3.30;1.70;;;29.50;47.80;;;;;;4963641;28;20093;-72
2021/06/02 11:14:17;;;;;;;1.58;1.48;;;29.50;48.10;;;;;;4956747;28;20039;-73
2021/06/02 11:16:51;;;;;;;7.47;1.70;;;29.50;47.90;;;;;;4973516;28;20043;-72
2021/06/02 11:19:19;;;;;;;2.08;1.50;;;29.60;48.50;;;;;;4987736;28;20036;-72
2021/06/02 11:21:54;;;;;;;4.13;1.50;;;30.30;49.00;;;;;;4992917;28;20026;-73
2021/06/02 11:24:34;;;;;;;4.97;1.70;;;30.40;48.00;;;;;;4992583;28;20023;-72
2021/06/02 11:27:12;;;;;;;5.63;1.35;;;30.90;48.10;;;;;;4992975;28;20173;-72
2021/06/02 11:29:50;;;;;;;1.77;1.52;;;31.00;45.80;;;;;;4991725;28;20039;-72
2021/06/02 11:32:23;;;;;;;1.52;1.42;;;30.90;46.00;;;;;;4978425;28;20035;-72
2021/06/02 11:34:53;;;;;;;5.20;1.60;;;30.80;45.70;;;;;;4978228;28;20046;-72
2021/06/02 11:37:24;;;;;;;2.60;1.50;;;30.70;47.30;;;;;;4993057;28;20027;-70
2021/06/02 11:39:53;;;;;;;11.73;1.80;;;31.20;47.20;;;;;;4985509;28;20023;-72
2021/06/02 11:42:47;;;;;;;2.28;1.48;;;31.10;45.70;;;;;;4993425;28;20073;-69
2021/06/02 11:45:15;;;;;;;2.45;1.50;;;30.70;45.60;;;;;;4993017;28;20081;-71
2021/06/02 11:47:50;;;;;;;1.60;1.33;;;30.60;47.30;;;;;;4975659;28;20081;-72
2021/06/02 11:50:19;;;;;;;3.60;1.33;;;30.90;46.80;;;;;;4987339;28;20026;-72
2021/06/02 11:52:52;;;;;;;2.58;1.40;;;31.10;44.60;;;;;;4981723;28;20065;-72
2021/06/02 11:55:18;;;;;;;1.95;1.42;;;30.30;46.30;;;;;;4982937;28;20042;-73
2021/06/02 11:57:46;;;;;;;2.67;1.42;;;30.50;47.20;;;;;;4982968;28;20045;-72
2021/06/02 12:00:13;;;;;;;4.47;1.63;;;31.20;47.00;;;;;;4981794;28;20033;-72
2021/06/02 12:02:40;;;;;;;2.63;1.60;;;31.70;45.10;;;;;;4983518;28;20039;-72
2021/06/02 12:05:28;;;;;;;1.67;1.58;;;32.10;44.70;;;;;;4964476;28;20030;-73
2021/06/02 12:07:57;;;;;;;2.30;1.45;;;32.50;45.20;;;;;;4982226;28;20054;-72
2021/06/02 12:10:24;;;;;;;1.63;1.52;;;32.70;45.00;;;;;;4981647;28;20038;-72
2021/06/02 12:12:51;;;;;;;2.97;1.40;;;32.70;44.10;;;;;;4981271;28;20126;-71
2021/06/02 12:15:17;;;;;;;3.70;1.40;;;32.40;43.60;;;;;;4982381;28;20030;-73
2021/06/02 12:17:44;;;;;;;3.92;1.42;;;31.80;43.80;;;;;;4981640;28;20042;-72
2021/06/02 12:20:22;;;;;;;7.95;1.48;;;31.60;44.10;;;;;;5003736;23;20093;-71
2021/06/02 12:22:50;;;;;;;6.43;1.50;;;31.30;43.80;;;;;;4991384;28;20018;-72
2021/06/02 12:25:21;;;;;;;1.42;1.33;;;31.50;44.80;;;;;;4991554;28;20030;-73
2021/06/02 12:27:55;;;;;;;1.73;1.30;;;31.70;44.70;;;;;;4991667;28;20034;-73
2021/06/02 12:30:24;;;;;;;1.73;1.35;;;31.70;44.10;;;;;;4979276;28;20379;-75
2021/06/02 12:32:57;;;;;;;2.92;1.33;;;31.10;44.30;;;;;;4971842;28;20548;-73
2021/06/02 12:35:38;;;;;;;1.25;1.23;;;31.20;44.70;;;;;;4970674;28;20027;-73
2021/06/02 12:38:06;;;;;;;2.38;1.40;;;30.90;45.20;;;;;;4972304;28;20485;-76
2021/06/02 12:40:34;;;;;;;2.65;1.52;;;31.00;44.10;;;;;;4969883;28;20031;-75
2021/06/02 12:43:00;;;;;;;3.28;1.48;;;30.90;44.50;;;;;;4973312;28;20030;-75
2021/06/02 12:45:29;;;;;;;4.22;1.40;;;31.20;45.20;;;;;;4971613;28;20022;-74
2021/06/02 12:47:55;;;;;;;5.95;1.30;;;31.70;45.10;;;;;;4971513;28;20037;-74
2021/06/02 12:50:39;;;;;;;1.60;1.25;;;32.10;46.40;;;;;;4954424;28;20389;-72
2021/06/02 12:53:06;;;;;;;1.52;1.30;;;32.20;44.00;;;;;;4972075;28;20026;-74
2021/06/02 12:55:37;;;;;;;1.30;1.20;;;32.10;43.60;;;;;;4954378;28;20034;-74
2021/06/02 12:58:10;;;;;;;3.97;1.48;;;31.70;43.30;;;;;;4971371;28;20878;-74
2021/06/02 13:00:41;;;;;;;1.25;1.15;;;31.70;45.10;;;;;;4969166;28;20019;-72
2021/06/02 13:03:07;;;;;;;3.33;1.33;;;31.90;43.80;;;;;;4971115;28;20118;-74
2021/06/02 13:05:34;;;;;;;1.48;1.30;;;31.70;43.40;;;;;;4970777;28;20029;-73
2021/06/02 13:08:05;;;;;;;7.13;1.83;;;31.30;42.60;;;;;;4971145;28;20031;-75
2021/06/02 13:10:33;;;;;;;2.27;1.40;;;31.50;43.30;;;;;;4971565;28;20558;-74
2021/06/02 13:13:01;;;;;;;3.78;1.38;;;31.50;43.60;;;;;;4968399;28;20287;-74
2021/06/02 13:15:38;;;;;;;1.88;1.35;;;31.90;43.20;;;;;;4971638;28;20050;-75
2021/06/02 13:18:06;;;;;;;1.80;1.20;;;32.60;43.30;;;;;;4971550;28;20050;-74
2021/06/02 13:20:35;;;;;;;1.45;1.35;;;33.00;41.10;;;;;;4970997;28;20125;-75
2021/06/02 13:23:13;;;;;;;3.28;1.25;;;33.70;42.40;;;;;;4971638;28;20035;-74
2021/06/02 13:25:40;;;;;;;1.52;1.42;;;33.50;41.60;;;;;;4971813;28;20027;-74
2021/06/02 13:28:07;;;;;;;4.18;1.35;;;32.90;41.80;;;;;;4969871;28;20045;-74
2021/06/02 13:30:45;;;;;;;4.30;1.00;;;31.70;41.80;;;;;;4970595;28;20027;-75
2021/06/02 13:33:12;;;;;;;1.67;1.25;;;31.40;43.10;;;;;;4971249;28;20442;-75
2021/06/02 13:35:39;;;;;;;3.40;1.40;;;31.40;43.10;;;;;;4954647;28;20038;-74